createdAt,value
2023-03-05T00:00:40.011Z,2.7
2023-03-05T00:01:40.029Z,2.7
2023-03-05T00:02:40.085Z,2.7
2023-03-05T00:03:40.047Z,2.7
2023-03-05T00:04:40.013Z,2.7
2023-03-05T00:05:40.006Z,2.7
2023-03-05T00:06:40.045Z,2.7
2023-03-05T00:07:40.105Z,2.7
2023-03-05T00:08:40.011Z,2.7
2023-03-05T00:09:40.010Z,2.7
2023-03-05T00:10:40.015Z,2.7
2023-03-05T00:11:40.031Z,2.6
2023-03-05T00:12:40.013Z,2.6
2023-03-05T00:13:40.003Z,2.6
2023-03-05T00:14:40.485Z,2.6
2023-03-05T00:15:40.031Z,2.6
2023-03-05T00:16:40.024Z,2.6
2023-03-05T00:17:40.003Z,2.6
2023-03-05T00:18:40.007Z,2.6
2023-03-05T00:19:40.009Z,2.6
2023-03-05T00:20:40.016Z,2.6
2023-03-05T00:21:40.056Z,2.6
2023-03-05T00:22:40.008Z,2.5
2023-03-05T00:23:40.008Z,2.5
2023-03-05T00:24:40.002Z,2.5
2023-03-05T00:25:40.009Z,2.5
2023-03-05T00:26:40.029Z,2.5
2023-03-05T00:27:40.013Z,2.5
2023-03-05T00:28:40.008Z,2.5
2023-03-05T00:29:40.009Z,2.5
2023-03-05T00:30:40.009Z,2.5
2023-03-05T00:31:40.122Z,2.5
2023-03-05T00:32:40.103Z,2.5
2023-03-05T00:33:40.004Z,2.5
2023-03-05T00:34:40.019Z,2.5
2023-03-05T00:35:40.025Z,2.5
2023-03-05T00:36:40.066Z,2.5
2023-03-05T00:37:40.005Z,2.5
2023-03-05T00:38:40.007Z,2.5
2023-03-05T00:39:40.005Z,2.5
2023-03-05T00:40:40.105Z,2.5
2023-03-05T00:41:40.027Z,2.5
2023-03-05T00:42:40.011Z,2.5
2023-03-05T00:43:40.005Z,2.5
2023-03-05T00:44:40.032Z,2.5
2023-03-05T00:45:40.014Z,2.5
2023-03-05T00:46:40.075Z,2.5
2023-03-05T00:47:40.004Z,2.5
2023-03-05T00:48:40.012Z,2.5
2023-03-05T00:49:40.021Z,2.5
2023-03-05T00:50:40.008Z,2.5
2023-03-05T00:51:40.031Z,2.5
2023-03-05T00:52:40.011Z,2.5
2023-03-05T00:53:40.012Z,2.5
2023-03-05T00:54:40.011Z,2.5
2023-03-05T00:55:40.022Z,2.5
2023-03-05T00:56:40.362Z,2.5
2023-03-05T00:57:40.553Z,2.5
2023-03-05T00:58:40.323Z,2.5
2023-03-05T00:59:40.006Z,2.5
2023-03-05T01:00:40.009Z,2.5
2023-03-05T01:01:40.014Z,2.5
2023-03-05T01:02:40.014Z,2.5
2023-03-05T01:03:40.014Z,2.4
2023-03-05T01:04:40.204Z,2.5
2023-03-05T01:05:40.079Z,2.5
2023-03-05T01:06:39.996Z,2.5
2023-03-05T01:07:40.005Z,2.5
2023-03-05T01:08:40.012Z,2.4
2023-03-05T01:09:40.020Z,2.5
2023-03-05T01:10:40.288Z,2.5
2023-03-05T01:11:39.987Z,2.5
2023-03-05T01:12:40.262Z,2.5
2023-03-05T01:13:40.160Z,2.5
2023-03-05T01:14:39.989Z,2.5
2023-03-05T01:15:39.998Z,2.5
2023-03-05T01:16:39.998Z,2.5
2023-03-05T01:17:40.331Z,2.5
2023-03-05T01:18:40.124Z,2.5
2023-03-05T01:19:39.995Z,2.5
2023-03-05T01:20:40.163Z,2.5
2023-03-05T01:21:39.986Z,2.5
2023-03-05T01:22:39.981Z,2.5
2023-03-05T01:23:40.020Z,2.5
2023-03-05T01:24:40.275Z,2.5
2023-03-05T01:25:40.112Z,2.5
2023-03-05T01:26:40.008Z,2.5
2023-03-05T01:27:40.264Z,2.5
2023-03-05T01:28:39.997Z,2.5
2023-03-05T01:29:39.993Z,2.5
2023-03-05T01:30:39.989Z,2.5
2023-03-05T01:31:40.039Z,2.5
2023-03-05T01:32:40.047Z,2.5
2023-03-05T01:33:39.982Z,2.5
2023-03-05T01:34:40.003Z,2.5
2023-03-05T01:35:40.098Z,2.5
2023-03-05T01:36:39.980Z,2.5
2023-03-05T01:37:39.999Z,2.5
2023-03-05T01:38:39.977Z,2.5
2023-03-05T01:39:39.989Z,2.5
2023-03-05T01:40:40.000Z,2.5
2023-03-05T01:41:39.982Z,2.5
2023-03-05T01:42:39.982Z,2.5
2023-03-05T01:43:39.987Z,2.5
2023-03-05T01:44:39.989Z,2.5
2023-03-05T01:45:40.046Z,2.5
2023-03-05T01:46:39.985Z,2.5
2023-03-05T01:47:40.017Z,2.5
2023-03-05T01:48:39.978Z,2.5
2023-03-05T01:49:39.993Z,2.5
2023-03-05T01:50:39.998Z,2.5
2023-03-05T01:51:39.989Z,2.5
2023-03-05T01:52:39.993Z,2.5
2023-03-05T01:53:39.994Z,2.5
2023-03-05T01:54:40.004Z,2.5
2023-03-05T01:55:39.981Z,2.5
2023-03-05T01:56:40.265Z,2.5
2023-03-05T01:57:40.000Z,2.5
2023-03-05T01:58:39.986Z,2.5
2023-03-05T01:59:40.103Z,2.5
2023-03-05T02:00:39.996Z,2.5
2023-03-05T02:01:39.980Z,2.5
2023-03-05T02:02:39.977Z,2.5
2023-03-05T02:03:39.990Z,2.5
2023-03-05T02:04:40.013Z,2.5
2023-03-05T02:05:39.981Z,2.5
2023-03-05T02:06:39.986Z,2.5
2023-03-05T02:07:39.985Z,2.5
2023-03-05T02:08:39.983Z,2.5
2023-03-05T02:09:40.008Z,2.5
2023-03-05T02:10:39.983Z,2.5
2023-03-05T02:11:39.982Z,2.5
2023-03-05T02:12:39.984Z,2.5
2023-03-05T02:13:39.981Z,2.5
2023-03-05T02:14:40.097Z,2.5
2023-03-05T02:15:39.977Z,2.5
2023-03-05T02:16:40.072Z,2.5
2023-03-05T02:17:39.986Z,2.5
2023-03-05T02:18:39.984Z,2.5
2023-03-05T02:19:40.007Z,2.5
2023-03-05T02:20:39.982Z,2.5
2023-03-05T02:21:40.003Z,2.5
2023-03-05T02:22:39.982Z,2.5
2023-03-05T02:23:39.976Z,2.5
2023-03-05T02:24:40.025Z,2.5
2023-03-05T02:25:39.988Z,2.5
2023-03-05T02:26:39.993Z,2.5
2023-03-05T02:27:40.064Z,2.5
2023-03-05T02:28:39.995Z,2.5
2023-03-05T02:29:39.997Z,2.5
2023-03-05T02:30:39.986Z,2.5
2023-03-05T02:31:40.009Z,2.5
2023-03-05T02:32:40.020Z,2.5
2023-03-05T02:33:39.988Z,2.5
2023-03-05T02:34:40.013Z,2.5
2023-03-05T02:35:40.006Z,2.5
2023-03-05T02:36:39.996Z,2.5
2023-03-05T02:37:40.002Z,2.5
2023-03-05T02:38:39.976Z,2.5
2023-03-05T02:39:40.017Z,2.5
2023-03-05T02:40:39.980Z,2.5
2023-03-05T02:41:39.988Z,2.5
2023-03-05T02:42:39.985Z,2.5
2023-03-05T02:43:39.978Z,2.5
2023-03-05T02:44:39.984Z,2.5
2023-03-05T02:45:40.043Z,2.5
2023-03-05T02:46:39.992Z,2.5
2023-03-05T02:47:39.988Z,2.5
2023-03-05T02:48:40.026Z,2.5
2023-03-05T02:49:39.994Z,2.5
2023-03-05T02:50:40.160Z,2.5
2023-03-05T02:51:39.991Z,2.5
2023-03-05T02:52:39.985Z,2.5
2023-03-05T02:53:39.990Z,2.5
2023-03-05T02:54:39.989Z,2.5
2023-03-05T02:55:39.986Z,2.5
2023-03-05T02:56:39.980Z,2.5
2023-03-05T02:57:39.992Z,2.5
2023-03-05T02:58:39.980Z,2.5
2023-03-05T02:59:40.041Z,2.5
2023-03-05T03:00:39.982Z,2.5
2023-03-05T03:01:40.029Z,2.5
2023-03-05T03:02:39.987Z,2.4
2023-03-05T03:03:39.999Z,2.4
2023-03-05T03:04:39.999Z,2.4
2023-03-05T03:05:40.001Z,2.4
2023-03-05T03:06:40.009Z,2.4
2023-03-05T03:07:39.997Z,2.4
2023-03-05T03:08:39.988Z,2.4
2023-03-05T03:09:40.030Z,2.4
2023-03-05T03:10:40.064Z,2.4
2023-03-05T03:11:39.989Z,2.4
2023-03-05T03:12:39.980Z,2.4
2023-03-05T03:13:40.844Z,2.4
2023-03-05T03:14:40.002Z,2.4
2023-03-05T03:15:39.986Z,2.4
2023-03-05T03:16:40.158Z,2.4
2023-03-05T03:17:40.265Z,2.4
2023-03-05T03:18:39.982Z,2.4
2023-03-05T03:19:40.012Z,2.4
2023-03-05T03:20:39.983Z,2.4
2023-03-05T03:21:40.008Z,2.4
2023-03-05T03:22:39.992Z,2.4
2023-03-05T03:23:39.992Z,2.3
2023-03-05T03:24:39.987Z,2.3
2023-03-05T03:25:39.998Z,2.3
2023-03-05T03:26:39.998Z,2.3
2023-03-05T03:27:39.983Z,2.3
2023-03-05T03:28:39.993Z,2.3
2023-03-05T03:29:40.010Z,2.3
2023-03-05T03:30:40.009Z,2.3
2023-03-05T03:31:40.007Z,2.3
2023-03-05T03:32:39.989Z,2.3
2023-03-05T03:33:39.984Z,2.3
2023-03-05T03:34:40.018Z,2.3
2023-03-05T03:35:40.035Z,2.3
2023-03-05T03:36:40.012Z,2.3
2023-03-05T03:37:39.998Z,2.3
2023-03-05T03:38:39.991Z,2.3
2023-03-05T03:39:40.003Z,2.3
2023-03-05T03:40:39.997Z,2.3
2023-03-05T03:41:40.000Z,2.3
2023-03-05T03:42:39.993Z,2.3
2023-03-05T03:43:39.994Z,2.3
2023-03-05T03:44:40.006Z,2.3
2023-03-05T03:45:39.995Z,2.3
2023-03-05T03:46:39.988Z,2.3
2023-03-05T03:47:39.992Z,2.3
2023-03-05T03:48:39.991Z,2.3
2023-03-05T03:49:40.000Z,2.3
2023-03-05T03:50:40.004Z,2.3
2023-03-05T03:51:40.015Z,2.3
2023-03-05T03:52:39.990Z,2.3
2023-03-05T03:53:39.990Z,2.3
2023-03-05T03:54:39.994Z,2.3
2023-03-05T03:55:39.988Z,2.3
2023-03-05T03:56:40.024Z,2.3
2023-03-05T03:57:39.988Z,2.3
2023-03-05T03:58:40.011Z,2.2
2023-03-05T03:59:39.986Z,2.2
2023-03-05T04:00:39.995Z,2.2
2023-03-05T04:01:40.033Z,2.2
2023-03-05T04:02:40.104Z,2.2
2023-03-05T04:03:39.981Z,2.1
2023-03-05T04:04:40.078Z,2.1
2023-03-05T04:05:40.024Z,2.1
2023-03-05T04:06:40.226Z,2.1
2023-03-05T04:07:39.999Z,2.1
2023-03-05T04:08:39.993Z,2.1
2023-03-05T04:09:40.011Z,2.1
2023-03-05T04:10:39.986Z,2.1
2023-03-05T04:11:40.017Z,2.1
2023-03-05T04:12:39.991Z,2.1
2023-03-05T04:13:39.991Z,2.1
2023-03-05T04:14:39.987Z,2.1
2023-03-05T04:15:40.071Z,2.1
2023-03-05T04:16:40.007Z,2.1
2023-03-05T04:17:39.997Z,2.1
2023-03-05T04:18:39.990Z,2.1
2023-03-05T04:19:40.030Z,2.1
2023-03-05T04:20:39.993Z,2.1
2023-03-05T04:21:40.021Z,2.1
2023-03-05T04:22:39.993Z,2.2
2023-03-05T04:23:39.987Z,2.2
2023-03-05T04:24:39.993Z,2.2
2023-03-05T04:25:39.995Z,2.2
2023-03-05T04:26:40.009Z,2.2
2023-03-05T04:27:39.987Z,2.2
2023-03-05T04:28:39.997Z,2.3
2023-03-05T04:29:39.992Z,2.2
2023-03-05T04:30:40.094Z,2.3
2023-03-05T04:31:40.397Z,2.3
2023-03-05T04:32:40.591Z,2.3
2023-03-05T04:33:40.284Z,2.3
2023-03-05T04:34:40.007Z,2.3
2023-03-05T04:35:40.065Z,2.3
2023-03-05T04:36:40.017Z,2.3
2023-03-05T04:37:40.017Z,2.4
2023-03-05T04:38:40.008Z,2.4
2023-03-05T04:39:39.998Z,2.4
2023-03-05T04:40:39.996Z,2.4
2023-03-05T04:41:40.022Z,2.4
2023-03-05T04:42:40.044Z,2.4
2023-03-05T04:43:40.265Z,2.4
2023-03-05T04:44:40.191Z,2.4
2023-03-05T04:45:40.075Z,2.4
2023-03-05T04:46:40.274Z,2.4
2023-03-05T04:47:40.027Z,2.4
2023-03-05T04:48:40.028Z,2.5
2023-03-05T04:49:39.984Z,2.5
2023-03-05T04:50:39.981Z,2.5
2023-03-05T04:51:40.235Z,2.5
2023-03-05T04:52:40.068Z,2.5
2023-03-05T04:53:40.264Z,2.5
2023-03-05T04:54:40.204Z,2.5
2023-03-05T04:55:39.987Z,2.4
2023-03-05T04:56:39.979Z,2.4
2023-03-05T04:57:40.184Z,2.4
2023-03-05T04:58:39.984Z,2.4
2023-03-05T04:59:39.981Z,2.4
2023-03-05T05:00:40.241Z,2.4
2023-03-05T05:01:40.085Z,2.4
2023-03-05T05:02:40.390Z,2.4
2023-03-05T05:03:39.983Z,2.4
2023-03-05T05:04:39.982Z,2.4
2023-03-05T05:05:39.983Z,2.4
2023-03-05T05:06:39.985Z,2.4
2023-03-05T05:07:39.981Z,2.4
2023-03-05T05:08:39.998Z,2.4
2023-03-05T05:09:39.984Z,2.4
2023-03-05T05:10:39.997Z,2.4
2023-03-05T05:11:39.986Z,2.4
2023-03-05T05:12:39.985Z,2.4
2023-03-05T05:13:40.150Z,2.3
2023-03-05T05:14:40.006Z,2.3
2023-03-05T05:15:40.027Z,2.3
2023-03-05T05:16:39.997Z,2.3
2023-03-05T05:17:39.992Z,2.3
2023-03-05T05:18:39.988Z,2.3
2023-03-05T05:19:39.994Z,2.3
2023-03-05T05:20:39.992Z,2.2
2023-03-05T05:21:39.984Z,2.2
2023-03-05T05:22:39.987Z,2.2
2023-03-05T05:23:39.994Z,2.2
2023-03-05T05:24:39.985Z,2.1
2023-03-05T05:25:39.978Z,2.1
2023-03-05T05:26:39.991Z,2.1
2023-03-05T05:27:40.010Z,2.1
2023-03-05T05:28:40.007Z,2.1
2023-03-05T05:29:39.984Z,2.1
2023-03-05T05:30:40.122Z,2.1
2023-03-05T05:31:40.062Z,2.1
2023-03-05T05:32:40.063Z,2.1
2023-03-05T05:33:39.977Z,2.1
2023-03-05T05:34:39.986Z,2.1
2023-03-05T05:35:40.024Z,2.1
2023-03-05T05:36:40.020Z,2.1
2023-03-05T05:37:40.014Z,2.1
2023-03-05T05:38:39.991Z,2.1
2023-03-05T05:39:39.993Z,2.1
2023-03-05T05:40:39.984Z,2.1
2023-03-05T05:41:40.002Z,2.1
2023-03-05T05:42:39.992Z,2.1
2023-03-05T05:43:40.003Z,2.1
2023-03-05T05:44:40.076Z,2.1
2023-03-05T05:45:40.092Z,2.1
2023-03-05T05:46:40.072Z,2.1
2023-03-05T05:47:40.000Z,2.1
2023-03-05T05:48:39.992Z,2.1
2023-03-05T05:49:40.002Z,2.1
2023-03-05T05:50:39.989Z,2.1
2023-03-05T05:51:39.996Z,2.1
2023-03-05T05:52:39.999Z,2.1
2023-03-05T05:53:39.997Z,2
2023-03-05T05:54:39.998Z,2.1
2023-03-05T05:55:39.994Z,2
2023-03-05T05:56:39.990Z,2
2023-03-05T05:57:39.996Z,2
2023-03-05T05:58:39.996Z,2
2023-03-05T05:59:39.991Z,2
2023-03-05T06:00:40.001Z,2
2023-03-05T06:01:40.038Z,2
2023-03-05T06:02:40.020Z,2
2023-03-05T06:03:39.986Z,2
2023-03-05T06:04:39.994Z,2
2023-03-05T06:05:39.988Z,2
2023-03-05T06:06:40.000Z,2
2023-03-05T06:07:40.001Z,1.9
2023-03-05T06:08:39.996Z,1.9
2023-03-05T06:09:39.993Z,1.9
2023-03-05T06:10:40.010Z,1.9
2023-03-05T06:11:40.009Z,1.9
2023-03-05T06:12:40.004Z,1.9
2023-03-05T06:13:39.985Z,1.9
2023-03-05T06:14:39.994Z,1.9
2023-03-05T06:15:39.985Z,2
2023-03-05T06:16:40.093Z,2
2023-03-05T06:17:39.990Z,2
2023-03-05T06:18:39.991Z,1.9
2023-03-05T06:19:39.988Z,2
2023-03-05T06:20:39.982Z,2
2023-03-05T06:21:39.991Z,2
2023-03-05T06:22:39.989Z,2
2023-03-05T06:23:39.998Z,2
2023-03-05T06:24:39.989Z,2
2023-03-05T06:25:39.988Z,2
2023-03-05T06:26:40.003Z,2
2023-03-05T06:27:39.995Z,2
2023-03-05T06:28:39.982Z,2
2023-03-05T06:29:39.988Z,2
2023-03-05T06:30:40.108Z,2.1
2023-03-05T06:31:39.990Z,2.1
2023-03-05T06:32:39.992Z,2.1
2023-03-05T06:33:39.989Z,2.1
2023-03-05T06:34:39.986Z,2.1
2023-03-05T06:35:40.097Z,2.1
2023-03-05T06:36:39.995Z,2.1
2023-03-05T06:37:39.991Z,2.1
2023-03-05T06:38:40.132Z,2.1
2023-03-05T06:39:39.988Z,2.1
2023-03-05T06:40:40.004Z,2.1
2023-03-05T06:41:39.989Z,2.1
2023-03-05T06:42:39.991Z,2.1
2023-03-05T06:43:39.985Z,2.1
2023-03-05T06:44:39.992Z,2.1
2023-03-05T06:45:40.046Z,2.1
2023-03-05T06:46:39.983Z,2.1
2023-03-05T06:47:40.265Z,2.1
2023-03-05T06:48:40.505Z,2.1
2023-03-05T06:49:39.990Z,2.1
2023-03-05T06:50:40.003Z,2.1
2023-03-05T06:51:40.145Z,2.1
2023-03-05T06:52:40.286Z,2.1
2023-03-05T06:53:40.005Z,2.1
2023-03-05T06:54:39.992Z,2.1
2023-03-05T06:55:39.988Z,2.1
2023-03-05T06:56:40.010Z,2.1
2023-03-05T06:57:39.990Z,2.1
2023-03-05T06:58:39.995Z,2.1
2023-03-05T06:59:40.018Z,2.1
2023-03-05T07:00:39.993Z,2.1
2023-03-05T07:01:40.048Z,2.1
2023-03-05T07:02:40.056Z,2.2
2023-03-05T07:03:39.993Z,2.2
2023-03-05T07:04:40.012Z,2.2
2023-03-05T07:05:40.095Z,2.2
2023-03-05T07:06:40.001Z,2.2
2023-03-05T07:07:39.994Z,2.2
2023-03-05T07:08:39.995Z,2.3
2023-03-05T07:09:40.016Z,2.3
2023-03-05T07:10:39.988Z,2.3
2023-03-05T07:11:40.004Z,2.3
2023-03-05T07:12:40.524Z,2.4
2023-03-05T07:13:39.992Z,2.4
2023-03-05T07:14:39.996Z,2.4
2023-03-05T07:15:40.018Z,2.4
2023-03-05T07:16:40.024Z,2.4
2023-03-05T07:17:39.991Z,2.5
2023-03-05T07:18:39.990Z,2.5
2023-03-05T07:19:39.991Z,2.5
2023-03-05T07:20:39.996Z,2.5
2023-03-05T07:21:40.232Z,2.5
2023-03-05T07:22:40.257Z,2.5
2023-03-05T07:23:40.009Z,2.5
2023-03-05T07:24:39.986Z,2.6
2023-03-05T07:25:40.020Z,2.6
2023-03-05T07:26:40.005Z,2.6
2023-03-05T07:27:39.992Z,2.6
2023-03-05T07:28:40.021Z,2.6
2023-03-05T07:29:39.996Z,2.6
2023-03-05T07:30:40.053Z,2.7
2023-03-05T07:31:39.990Z,2.7
2023-03-05T07:32:39.990Z,2.7
2023-03-05T07:33:39.982Z,2.7
2023-03-05T07:34:39.997Z,2.8
2023-03-05T07:35:40.025Z,2.8
2023-03-05T07:36:39.992Z,2.8
2023-03-05T07:37:39.996Z,2.8
2023-03-05T07:38:39.991Z,2.8
2023-03-05T07:39:39.993Z,2.8
2023-03-05T07:40:39.990Z,2.8
2023-03-05T07:41:39.989Z,2.8
2023-03-05T07:42:40.044Z,2.8
2023-03-05T07:43:39.986Z,2.8
2023-03-05T07:44:39.991Z,2.9
2023-03-05T07:45:39.999Z,2.9
2023-03-05T07:46:40.034Z,2.9
2023-03-05T07:47:39.990Z,2.9
2023-03-05T07:48:39.988Z,2.9
2023-03-05T07:49:39.995Z,2.9
2023-03-05T07:50:39.991Z,2.9
2023-03-05T07:51:39.995Z,2.9
2023-03-05T07:52:39.998Z,2.9
2023-03-05T07:53:39.991Z,2.9
2023-03-05T07:54:40.012Z,3
2023-03-05T07:55:39.988Z,3
2023-03-05T07:56:39.993Z,3
2023-03-05T07:57:40.007Z,3
2023-03-05T07:58:39.988Z,3
2023-03-05T07:59:40.001Z,3
2023-03-05T08:00:39.996Z,3.1
2023-03-05T08:01:39.993Z,3.1
2023-03-05T08:02:40.037Z,3.1
2023-03-05T08:03:40.026Z,3.1
2023-03-05T08:04:40.022Z,3.2
2023-03-05T08:05:40.131Z,3.2
2023-03-05T08:06:40.453Z,3.2
2023-03-05T08:07:40.666Z,3.2
2023-03-05T08:08:39.995Z,3.2
2023-03-05T08:09:40.012Z,3.2
2023-03-05T08:10:39.992Z,3.3
2023-03-05T08:11:39.994Z,3.3
2023-03-05T08:12:39.988Z,3.3
2023-03-05T08:13:39.991Z,3.4
2023-03-05T08:14:40.000Z,3.4
2023-03-05T08:15:40.025Z,3.4
2023-03-05T08:16:40.268Z,3.4
2023-03-05T08:17:40.121Z,3.4
2023-03-05T08:18:39.986Z,3.4
2023-03-05T08:19:40.249Z,3.4
2023-03-05T08:20:39.991Z,3.4
2023-03-05T08:21:40.007Z,3.4
2023-03-05T08:22:39.993Z,3.4
2023-03-05T08:23:39.990Z,3.4
2023-03-05T08:24:39.987Z,3.4
2023-03-05T08:25:40.004Z,3.4
2023-03-05T08:26:40.261Z,3.4
2023-03-05T08:27:40.613Z,3.5
2023-03-05T08:28:39.991Z,3.5
2023-03-05T08:29:40.103Z,3.5
2023-03-05T08:30:39.988Z,3.6
2023-03-05T08:31:40.071Z,3.6
2023-03-05T08:32:40.030Z,3.6
2023-03-05T08:33:40.251Z,3.6
2023-03-05T08:34:40.011Z,3.6
2023-03-05T08:35:40.254Z,3.6
2023-03-05T08:36:40.126Z,3.6
2023-03-05T08:37:39.988Z,3.5
2023-03-05T08:38:39.990Z,3.4
2023-03-05T08:39:40.016Z,3.4
2023-03-05T08:40:40.004Z,3.4
2023-03-05T08:41:39.996Z,3.3
2023-03-05T08:42:39.989Z,3.3
2023-03-05T08:43:40.012Z,3.2
2023-03-05T08:44:40.032Z,3.2
2023-03-05T08:45:39.996Z,3.2
2023-03-05T08:46:40.044Z,3.2
2023-03-05T08:47:39.987Z,3.2
2023-03-05T08:48:39.988Z,3.2
2023-03-05T08:49:39.990Z,3.2
2023-03-05T08:50:39.986Z,3.2
2023-03-05T08:51:40.001Z,3.2
2023-03-05T08:52:39.987Z,3.2
2023-03-05T08:53:39.993Z,3.2
2023-03-05T08:54:39.990Z,3.2
2023-03-05T08:55:40.069Z,3.3
2023-03-05T08:56:39.991Z,3.3
2023-03-05T08:57:40.005Z,3.3
2023-03-05T08:58:39.995Z,3.3
2023-03-05T08:59:39.989Z,3.3
2023-03-05T09:00:39.989Z,3.3
2023-03-05T09:01:40.018Z,3.3
2023-03-05T09:02:40.049Z,3.3
2023-03-05T09:03:39.997Z,3.3
2023-03-05T09:04:39.997Z,3.3
2023-03-05T09:05:39.991Z,3.3
2023-03-05T09:06:40.254Z,3.3
2023-03-05T09:07:39.993Z,3.3
2023-03-05T09:08:39.996Z,3.3
2023-03-05T09:09:40.047Z,3.4
2023-03-05T09:10:39.991Z,3.4
2023-03-05T09:11:39.996Z,3.4
2023-03-05T09:12:39.997Z,3.5
2023-03-05T09:13:39.987Z,3.5
2023-03-05T09:14:39.989Z,3.5
2023-03-05T09:15:39.993Z,3.5
2023-03-05T09:16:40.093Z,3.5
2023-03-05T09:17:39.996Z,3.5
2023-03-05T09:18:39.997Z,3.5
2023-03-05T09:19:39.991Z,3.5
2023-03-05T09:20:40.276Z,3.5
2023-03-05T09:21:39.997Z,3.5
2023-03-05T09:22:39.995Z,3.5
2023-03-05T09:23:40.058Z,3.5
2023-03-05T09:24:39.995Z,3.5
2023-03-05T09:25:39.993Z,3.5
2023-03-05T09:26:39.992Z,3.5
2023-03-05T09:27:39.988Z,3.5
2023-03-05T09:28:40.027Z,3.5
2023-03-05T09:29:41.930Z,3.5
2023-03-05T09:30:39.992Z,3.5
2023-03-05T09:31:40.068Z,3.5
2023-03-05T09:32:40.012Z,3.5
2023-03-05T09:33:39.984Z,3.5
2023-03-05T09:34:39.992Z,3.5
2023-03-05T09:35:40.031Z,3.5
2023-03-05T09:36:40.001Z,3.5
2023-03-05T09:37:39.988Z,3.4
2023-03-05T09:38:39.987Z,3.4
2023-03-05T09:39:39.992Z,3.4
2023-03-05T09:40:40.000Z,3.4
2023-03-05T09:41:39.989Z,3.3
2023-03-05T09:42:39.990Z,3.3
2023-03-05T09:43:39.997Z,3.3
2023-03-05T09:44:39.990Z,3.3
2023-03-05T09:45:40.002Z,3.3
2023-03-05T09:46:39.994Z,3.3
2023-03-05T09:47:39.984Z,3.3
2023-03-05T09:48:39.998Z,3.3
2023-03-05T09:49:39.995Z,3.3
2023-03-05T09:50:40.100Z,3.2
2023-03-05T09:51:39.994Z,3.2
2023-03-05T09:52:39.988Z,3.2
2023-03-05T09:53:39.983Z,3.2
2023-03-05T09:54:39.994Z,3.2
2023-03-05T09:55:39.990Z,3.2
2023-03-05T09:56:40.015Z,3.2
2023-03-05T09:57:40.003Z,3.2
2023-03-05T09:58:40.105Z,3.2
2023-03-05T09:59:39.990Z,3.2
2023-03-05T10:00:39.994Z,3.3
2023-03-05T10:01:40.000Z,3.3
2023-03-05T10:02:40.058Z,3.4
2023-03-05T10:03:40.017Z,3.4
2023-03-05T10:04:39.999Z,3.5
2023-03-05T10:05:39.991Z,3.6
2023-03-05T10:06:39.995Z,3.6
2023-03-05T10:07:39.999Z,3.6
2023-03-05T10:08:39.992Z,3.6
2023-03-05T10:09:39.991Z,3.7
2023-03-05T10:10:40.003Z,3.8
2023-03-05T10:11:39.992Z,3.8
2023-03-05T10:12:39.993Z,3.9
2023-03-05T10:13:39.995Z,3.9
2023-03-05T10:14:39.994Z,3.9
2023-03-05T10:15:39.995Z,4
2023-03-05T10:16:40.166Z,4.1
2023-03-05T10:17:39.986Z,4.1
2023-03-05T10:18:39.991Z,4.2
2023-03-05T10:19:39.988Z,4.2
2023-03-05T10:20:39.982Z,4.3
2023-03-05T10:21:40.498Z,4.3
2023-03-05T10:22:40.101Z,4.3
2023-03-05T10:23:40.453Z,4.3
2023-03-05T10:24:40.492Z,4.3
2023-03-05T10:25:40.110Z,4.3
2023-03-05T10:26:39.995Z,4.3
2023-03-05T10:27:39.987Z,4.3
2023-03-05T10:28:39.995Z,4.3
2023-03-05T10:29:40.006Z,4.3
2023-03-05T10:30:39.991Z,4.3
2023-03-05T10:31:40.089Z,4.3
2023-03-05T10:32:40.011Z,4.4
2023-03-05T10:33:39.990Z,4.4
2023-03-05T10:34:40.007Z,4.4
2023-03-05T10:35:40.046Z,4.4
2023-03-05T10:36:39.996Z,4.4
2023-03-05T10:37:39.998Z,4.5
2023-03-05T10:38:39.984Z,4.6
2023-03-05T10:39:39.994Z,4.7
2023-03-05T10:40:40.021Z,4.8
2023-03-05T10:41:39.993Z,4.8
2023-03-05T10:42:39.991Z,4.9
2023-03-05T10:43:39.994Z,5
2023-03-05T10:44:40.110Z,5.1
2023-03-05T10:45:40.079Z,5.2
2023-03-05T10:46:39.996Z,5.2
2023-03-05T10:47:39.990Z,5.3
2023-03-05T10:48:39.997Z,5.4
2023-03-05T10:49:39.995Z,5.6
2023-03-05T10:50:40.022Z,5.7
2023-03-05T10:51:39.987Z,5.7
2023-03-05T10:52:39.989Z,5.8
2023-03-05T10:53:40.002Z,5.9
2023-03-05T10:54:39.991Z,6
2023-03-05T10:55:39.993Z,6.1
2023-03-05T10:56:40.000Z,6.1
2023-03-05T10:57:39.990Z,6.1
2023-03-05T10:58:40.161Z,6.1
2023-03-05T10:59:39.989Z,6.2
2023-03-05T11:00:40.013Z,6.2
2023-03-05T11:01:40.050Z,6.2
2023-03-05T11:02:40.027Z,6.2
2023-03-05T11:03:39.993Z,6.2
2023-03-05T11:04:39.992Z,6.2
2023-03-05T11:05:39.994Z,6.2
2023-03-05T11:06:40.008Z,6.2
2023-03-05T11:07:39.983Z,6.3
2023-03-05T11:08:40.020Z,6.3
2023-03-05T11:09:39.988Z,6.3
2023-03-05T11:10:39.988Z,6.3
2023-03-05T11:11:40.013Z,6.3
2023-03-05T11:12:39.990Z,6.3
2023-03-05T11:13:39.981Z,6.3
2023-03-05T11:14:39.980Z,6.3
2023-03-05T11:15:40.037Z,6.3
2023-03-05T11:16:40.137Z,6.2
2023-03-05T11:17:40.074Z,6.2
2023-03-05T11:18:40.205Z,6.1
2023-03-05T11:19:40.222Z,6.1
2023-03-05T11:20:40.201Z,6.1
2023-03-05T11:21:40.259Z,6
2023-03-05T11:22:39.988Z,5.9
2023-03-05T11:23:39.990Z,5.7
2023-03-05T11:24:39.983Z,5.6
2023-03-05T11:25:39.995Z,5.4
2023-03-05T11:26:40.072Z,5.3
2023-03-05T11:27:39.985Z,5.2
2023-03-05T11:28:39.986Z,5.1
2023-03-05T11:29:39.994Z,4.9
2023-03-05T11:30:40.039Z,4.8
2023-03-05T11:31:40.024Z,4.8
2023-03-05T11:32:40.070Z,4.7
2023-03-05T11:33:39.991Z,4.6
2023-03-05T11:34:40.067Z,4.5
2023-03-05T11:35:40.099Z,4.5
2023-03-05T11:36:39.985Z,4.5
2023-03-05T11:37:39.994Z,4.4
2023-03-05T11:38:39.989Z,4.4
2023-03-05T11:39:40.018Z,4.4
2023-03-05T11:40:40.116Z,4.4
2023-03-05T11:41:40.235Z,4.4
2023-03-05T11:42:40.092Z,4.4
2023-03-05T11:43:39.985Z,4.4
2023-03-05T11:44:40.011Z,4.3
2023-03-05T11:45:39.985Z,4.3
2023-03-05T11:46:40.065Z,4.2
2023-03-05T11:47:39.989Z,4.2
2023-03-05T11:48:40.044Z,4.1
2023-03-05T11:49:40.258Z,4.1
2023-03-05T11:50:40.051Z,4
2023-03-05T11:51:40.395Z,4
2023-03-05T11:52:40.233Z,3.9
2023-03-05T11:53:39.987Z,3.9
2023-03-05T11:54:40.111Z,3.9
2023-03-05T11:55:39.990Z,3.8
2023-03-05T11:56:40.010Z,3.7
2023-03-05T11:57:39.990Z,3.7
2023-03-05T11:58:39.989Z,3.6
2023-03-05T11:59:40.012Z,3.6
2023-03-05T12:00:39.994Z,3.6
2023-03-05T12:01:40.168Z,3.6
2023-03-05T12:02:40.023Z,3.6
2023-03-05T12:03:40.214Z,3.6
2023-03-05T12:04:40.011Z,3.6
2023-03-05T12:05:40.250Z,3.6
2023-03-05T12:06:40.000Z,3.6
2023-03-05T12:07:40.663Z,3.6
2023-03-05T12:08:40.523Z,3.6
2023-03-05T12:09:40.487Z,3.6
2023-03-05T12:10:40.551Z,3.6
2023-03-05T12:11:40.225Z,3.6
2023-03-05T12:12:39.996Z,3.6
2023-03-05T12:13:42.294Z,3.6
2023-03-05T12:14:40.507Z,3.7
2023-03-05T12:15:40.013Z,3.6
2023-03-05T12:16:39.996Z,3.7
2023-03-05T12:17:39.992Z,3.6
2023-03-05T12:18:40.664Z,3.6
2023-03-05T12:19:40.439Z,3.6
2023-03-05T12:20:40.010Z,3.6
2023-03-05T12:21:40.002Z,3.6
2023-03-05T12:22:39.990Z,3.6
2023-03-05T12:23:39.991Z,3.6
2023-03-05T12:24:40.028Z,3.6
2023-03-05T12:25:39.988Z,3.6
2023-03-05T12:26:40.689Z,3.6
2023-03-05T12:27:40.058Z,3.6
2023-03-05T12:28:40.118Z,3.6
2023-03-05T12:29:40.153Z,3.6
2023-03-05T12:30:39.992Z,3.6
2023-03-05T12:31:40.052Z,3.6
2023-03-05T12:32:40.021Z,3.7
2023-03-05T12:33:40.005Z,3.7
2023-03-05T12:34:40.476Z,3.8
2023-03-05T12:35:40.999Z,3.8
2023-03-05T12:36:40.810Z,3.9
2023-03-05T12:37:40.314Z,3.9
2023-03-05T12:38:39.993Z,3.9
2023-03-05T12:39:40.400Z,3.9
2023-03-05T12:40:39.997Z,3.9
2023-03-05T12:41:40.458Z,3.9
2023-03-05T12:42:40.004Z,3.9
2023-03-05T12:43:39.994Z,3.9
2023-03-05T12:44:39.996Z,3.9
2023-03-05T12:45:39.992Z,4
2023-03-05T12:46:40.043Z,4
2023-03-05T12:47:40.538Z,4
2023-03-05T12:48:40.040Z,4.1
2023-03-05T12:49:40.001Z,4.1
2023-03-05T12:50:39.998Z,4.1
2023-03-05T12:51:39.992Z,4.2
2023-03-05T12:52:39.994Z,4.2
2023-03-05T12:53:40.003Z,4.2
2023-03-05T12:54:40.006Z,4.2
2023-03-05T12:55:39.996Z,4.2
2023-03-05T12:56:39.997Z,4.3
2023-03-05T12:57:39.991Z,4.3
2023-03-05T12:58:39.998Z,4.3
2023-03-05T12:59:40.030Z,4.3
2023-03-05T13:00:40.033Z,4.3
2023-03-05T13:01:39.993Z,4.3
2023-03-05T13:02:40.006Z,4.3
2023-03-05T13:03:40.068Z,4.2
2023-03-05T13:04:40.015Z,4.2
2023-03-05T13:05:39.989Z,4.2
2023-03-05T13:06:39.990Z,4.2
2023-03-05T13:07:39.988Z,4.2
2023-03-05T13:08:39.984Z,4.2
2023-03-05T13:09:39.996Z,4.2
2023-03-05T13:10:39.989Z,4.2
2023-03-05T13:11:40.054Z,4.2
2023-03-05T13:12:40.002Z,4.2
2023-03-05T13:13:39.981Z,4.3
2023-03-05T13:14:39.989Z,4.3
2023-03-05T13:15:39.989Z,4.4
2023-03-05T13:16:40.021Z,4.4
2023-03-05T13:17:39.981Z,4.4
2023-03-05T13:18:39.981Z,4.4
2023-03-05T13:19:39.990Z,4.5
2023-03-05T13:20:39.999Z,4.5
2023-03-05T13:21:39.989Z,4.6
2023-03-05T13:22:39.983Z,4.7
2023-03-05T13:23:39.986Z,4.7
2023-03-05T13:24:39.980Z,4.8
2023-03-05T13:25:39.983Z,4.8
2023-03-05T13:26:39.985Z,4.9
2023-03-05T13:27:39.999Z,5
2023-03-05T13:28:40.002Z,5
2023-03-05T13:29:39.989Z,5.1
2023-03-05T13:30:39.992Z,5.1
2023-03-05T13:31:40.043Z,5.2
2023-03-05T13:32:40.066Z,5.2
2023-03-05T13:33:39.984Z,5.2
2023-03-05T13:34:47.487Z,5.2
2023-03-05T13:35:40.035Z,5.3
2023-03-05T13:36:39.983Z,5.3
2023-03-05T13:37:39.996Z,5.3
2023-03-05T13:38:40.022Z,5.4
2023-03-05T13:39:40.066Z,5.5
2023-03-05T13:40:40.249Z,5.5
2023-03-05T13:41:39.985Z,5.5
2023-03-05T13:42:39.983Z,5.6
2023-03-05T13:43:39.985Z,5.6
2023-03-05T13:44:39.993Z,5.6
2023-03-05T13:45:40.138Z,5.6
2023-03-05T13:46:39.987Z,5.6
2023-03-05T13:47:39.986Z,5.6
2023-03-05T13:48:40.057Z,5.6
2023-03-05T13:49:39.984Z,5.7